createdAt,value
2023-04-26T00:00:32.278Z,90.89
2023-04-26T00:02:59.427Z,90.23
2023-04-26T00:05:26.573Z,90.76
2023-04-26T00:07:53.301Z,92.26
2023-04-26T00:10:20.029Z,90.88
2023-04-26T00:12:46.636Z,89.34
2023-04-26T00:15:14.766Z,90.80
2023-04-26T00:17:41.387Z,89.89
2023-04-26T00:20:08.411Z,87.03
2023-04-26T00:22:35.141Z,87.66
2023-04-26T00:25:02.001Z,89.41
2023-04-26T00:27:28.643Z,90.14
2023-04-26T00:29:55.366Z,88.23
2023-04-26T00:32:22.049Z,89.33
2023-04-26T00:34:48.883Z,88.24
2023-04-26T00:37:15.584Z,88.36
2023-04-26T00:39:42.222Z,89.29
2023-04-26T00:42:09.018Z,90.29
2023-04-26T00:44:35.623Z,92.67
2023-04-26T00:47:02.564Z,91.29
2023-04-26T00:49:29.265Z,92.39
2023-04-26T00:51:56.086Z,90.51
2023-04-26T00:54:22.854Z,90.34
2023-04-26T00:56:49.553Z,91.63
2023-04-26T00:59:16.390Z,91.65
2023-04-26T01:01:43.179Z,91.38
2023-04-26T01:04:10.077Z,89.94
2023-04-26T01:06:37.077Z,90.57
2023-04-26T01:09:05.224Z,91.21
2023-04-26T01:11:33.187Z,90.70
2023-04-26T01:13:59.842Z,92.55
2023-04-26T01:16:28.162Z,93.39
2023-04-26T01:18:55.042Z,92.84
2023-04-26T01:21:22.768Z,92.99
2023-04-26T01:23:50.413Z,94.81
2023-04-26T01:26:17.819Z,94.54
2023-04-26T01:28:45.133Z,95.20
2023-04-26T01:31:12.742Z,94.78
2023-04-26T01:33:39.433Z,96.19
2023-04-26T01:36:10.330Z,94.23
2023-04-26T01:38:37.124Z,93.43
2023-04-26T01:41:04.518Z,95.28
2023-04-26T01:43:31.330Z,94.48
2023-04-26T01:45:58.157Z,96.42
2023-04-26T01:48:24.816Z,96.32
2023-04-26T01:50:51.430Z,97.13
2023-04-26T01:53:18.146Z,97.24
2023-04-26T01:55:44.800Z,97.41
2023-04-26T01:58:11.400Z,97.33
2023-04-26T02:00:38.083Z,96.15
2023-04-26T02:03:04.787Z,95.57
2023-04-26T02:05:31.602Z,96.01
2023-04-26T02:07:58.361Z,96.14
2023-04-26T02:10:24.951Z,95.87
2023-04-26T02:12:51.672Z,96.45
2023-04-26T02:15:18.312Z,96.56
2023-04-26T02:17:45.046Z,95.28
2023-04-26T02:20:12.172Z,94.12
2023-04-26T02:22:38.809Z,94.40
2023-04-26T02:25:05.936Z,95.20
2023-04-26T02:27:32.521Z,93.96
2023-04-26T02:29:59.575Z,92.81
2023-04-26T02:32:26.434Z,93.73
2023-04-26T02:34:53.111Z,93.36
2023-04-26T02:37:19.948Z,94.38
2023-04-26T02:39:50.197Z,94.15
2023-04-26T02:42:17.498Z,94.91
2023-04-26T02:44:45.362Z,93.78
2023-04-26T02:47:11.968Z,94.42
2023-04-26T02:49:38.618Z,94.60
2023-04-26T02:52:05.351Z,94.40
2023-04-26T02:54:31.992Z,93.55
2023-04-26T02:56:58.701Z,92.97
2023-04-26T02:59:25.552Z,91.80
2023-04-26T03:01:52.260Z,93.00
2023-04-26T03:04:19.042Z,92.37
2023-04-26T03:06:45.737Z,92.08
2023-04-26T03:09:12.393Z,91.10
2023-04-26T03:11:38.995Z,90.91
2023-04-26T03:14:05.626Z,89.96
2023-04-26T03:16:41.390Z,90.38
2023-04-26T03:19:08.336Z,90.84
2023-04-26T03:21:35.096Z,91.09
2023-04-26T03:24:01.951Z,89.70
2023-04-26T03:26:28.622Z,89.92
2023-04-26T03:28:55.247Z,89.36
2023-04-26T03:31:21.904Z,89.52
2023-04-26T03:33:48.724Z,89.06
2023-04-26T03:36:15.566Z,88.89
2023-04-26T03:38:42.259Z,88.80
2023-04-26T03:41:08.970Z,88.10
2023-04-26T03:43:35.626Z,88.10
2023-04-26T03:46:02.342Z,88.17
2023-04-26T03:48:29.090Z,87.91
2023-04-26T03:50:55.862Z,89.65
2023-04-26T03:53:22.551Z,89.50
2023-04-26T03:55:49.162Z,88.29
2023-04-26T03:58:15.803Z,88.68
2023-04-26T04:00:42.507Z,89.89
2023-04-26T04:03:09.797Z,89.31
2023-04-26T04:05:36.659Z,88.67
2023-04-26T04:08:03.849Z,89.32
2023-04-26T04:10:30.600Z,90.30
2023-04-26T04:12:57.336Z,91.64
2023-04-26T04:15:24.040Z,91.56
2023-04-26T04:17:50.979Z,90.29
2023-04-26T04:20:18.044Z,89.82
2023-04-26T04:22:44.797Z,89.94
2023-04-26T04:25:11.416Z,89.64
2023-04-26T04:27:38.319Z,90.50
2023-04-26T04:30:06.247Z,90.86
2023-04-26T04:32:33.058Z,91.03
2023-04-26T04:35:00.018Z,89.73
2023-04-26T04:37:26.767Z,89.23
2023-04-26T04:39:53.735Z,88.50
2023-04-26T04:42:20.386Z,88.01
2023-04-26T04:44:47.244Z,88.48
2023-04-26T04:47:13.922Z,88.96
2023-04-26T04:49:40.716Z,87.66
2023-04-26T04:52:07.395Z,87.44
2023-04-26T04:54:34.187Z,86.07
2023-04-26T04:57:00.839Z,84.64
2023-04-26T04:59:28.061Z,85.28
2023-04-26T05:01:54.815Z,83.14
2023-04-26T05:04:22.022Z,83.23
2023-04-26T05:06:49.173Z,82.77
2023-04-26T05:09:15.837Z,83.11
2023-04-26T05:11:42.494Z,81.03
2023-04-26T05:14:09.312Z,82.01
2023-04-26T05:16:36.028Z,81.47
2023-04-26T05:19:02.705Z,82.06
2023-04-26T05:21:29.317Z,82.05
2023-04-26T05:23:55.994Z,81.81
2023-04-26T05:26:22.836Z,81.22
2023-04-26T05:28:49.505Z,83.29
2023-04-26T05:31:16.429Z,79.46
2023-04-26T05:33:43.116Z,81.43
2023-04-26T05:36:09.947Z,79.93
2023-04-26T05:38:36.675Z,81.12
2023-04-26T05:41:03.521Z,80.56
2023-04-26T05:43:30.151Z,80.80
2023-04-26T05:45:57.338Z,79.61
2023-04-26T05:48:25.224Z,78.01
2023-04-26T05:50:52.606Z,77.52
2023-04-26T05:53:20.016Z,77.99
2023-04-26T05:55:46.964Z,77.12
2023-04-26T05:58:13.892Z,76.18
2023-04-26T06:00:40.902Z,74.13
2023-04-26T06:03:07.976Z,73.56
2023-04-26T06:05:36.934Z,73.63
2023-04-26T06:08:03.753Z,73.10
2023-04-26T06:10:30.420Z,72.77
2023-04-26T06:12:57.078Z,72.84
2023-04-26T06:15:23.757Z,71.17
2023-04-26T06:17:50.551Z,71.38
2023-04-26T06:20:17.220Z,69.67
2023-04-26T06:22:43.976Z,70.12
2023-04-26T06:25:10.747Z,67.46
2023-04-26T06:27:37.402Z,66.84
2023-04-26T06:30:05.142Z,69.26
2023-04-26T06:32:33.213Z,67.84
2023-04-26T06:35:00.041Z,67.41
2023-04-26T06:37:26.670Z,66.43
2023-04-26T06:39:53.324Z,64.75
2023-04-26T06:42:20.253Z,64.12
2023-04-26T06:44:46.967Z,64.82
2023-04-26T06:47:13.872Z,66.14
2023-04-26T06:49:40.509Z,65.80
2023-04-26T06:52:09.036Z,64.00
2023-04-26T06:54:39.996Z,60.87
2023-04-26T06:57:13.170Z,64.18
2023-04-26T06:59:39.788Z,62.80
2023-04-26T07:02:06.816Z,62.99
2023-04-26T07:04:33.612Z,60.53
2023-04-26T07:07:00.710Z,59.68
2023-04-26T07:09:27.476Z,59.68
2023-04-26T07:11:54.119Z,59.67
2023-04-26T07:14:20.871Z,61.36
2023-04-26T07:16:47.601Z,61.48
2023-04-26T07:19:14.507Z,60.05
2023-04-26T07:21:41.185Z,58.53
2023-04-26T07:24:07.945Z,56.22
2023-04-26T07:26:35.675Z,53.61
2023-04-26T07:29:02.576Z,53.11
2023-04-26T07:31:30.699Z,52.42
2023-04-26T07:33:57.750Z,51.04
2023-04-26T07:36:25.144Z,51.40
2023-04-26T07:38:51.923Z,50.09
2023-04-26T07:41:18.575Z,51.51
2023-04-26T07:43:45.319Z,50.16
2023-04-26T07:46:12.094Z,51.32
2023-04-26T07:48:38.717Z,49.08
2023-04-26T07:51:10.308Z,47.05
2023-04-26T07:53:37.537Z,50.46
2023-04-26T07:56:04.945Z,49.41
2023-04-26T07:58:31.650Z,47.89
2023-04-26T08:00:58.686Z,46.46
2023-04-26T08:03:25.845Z,47.28
2023-04-26T08:05:52.656Z,47.35
2023-04-26T08:08:19.923Z,47.28
2023-04-26T08:10:46.565Z,49.39
2023-04-26T08:13:13.243Z,46.67
2023-04-26T08:15:40.125Z,47.56
2023-04-26T08:18:06.765Z,47.61
2023-04-26T08:20:33.391Z,49.65
2023-04-26T08:23:00.154Z,49.69
2023-04-26T08:25:26.969Z,49.11
2023-04-26T08:27:53.583Z,48.84
2023-04-26T08:30:20.443Z,47.88
2023-04-26T08:32:47.161Z,47.15
2023-04-26T08:35:13.930Z,47.96
2023-04-26T08:37:40.670Z,48.39
2023-04-26T08:40:08.472Z,48.77
2023-04-26T08:42:40.167Z,49.11
2023-04-26T08:45:08.081Z,46.67
2023-04-26T08:47:45.545Z,46.91
2023-04-26T08:50:13.150Z,48.31
2023-04-26T08:52:40.440Z,51.19
2023-04-26T08:55:09.169Z,46.05
2023-04-26T08:57:36.684Z,47.84
2023-04-26T09:00:05.745Z,46.62
2023-04-26T09:02:32.981Z,46.99
2023-04-26T09:05:00.248Z,45.56
2023-04-26T09:07:31.871Z,46.64
2023-04-26T09:09:59.829Z,48.79
2023-04-26T09:12:26.523Z,46.04
2023-04-26T09:14:53.198Z,47.19
2023-04-26T09:17:32.687Z,46.51
2023-04-26T09:20:01.160Z,47.94
2023-04-26T09:22:37.397Z,47.79
2023-04-26T09:25:05.653Z,45.09
2023-04-26T09:27:35.170Z,44.64
2023-04-26T09:30:18.462Z,44.30
2023-04-26T09:32:51.565Z,46.23
2023-04-26T09:35:24.365Z,45.87
2023-04-26T09:38:07.952Z,42.96
2023-04-26T09:40:49.682Z,45.83
2023-04-26T09:43:16.422Z,43.89
2023-04-26T09:45:58.937Z,43.04
2023-04-26T09:48:27.525Z,42.18
2023-04-26T09:50:56.088Z,45.87
2023-04-26T09:53:28.652Z,42.54
2023-04-26T09:55:56.834Z,41.99
2023-04-26T09:58:23.932Z,43.20
2023-04-26T10:00:51.979Z,42.37
2023-04-26T10:03:19.933Z,42.00
2023-04-26T10:05:46.983Z,41.78
2023-04-26T10:08:13.966Z,42.03
2023-04-26T10:10:41.437Z,42.13
2023-04-26T10:13:08.604Z,41.74
2023-04-26T10:15:35.770Z,41.37
2023-04-26T10:18:02.512Z,41.71
2023-04-26T10:20:29.924Z,40.05
2023-04-26T10:22:58.965Z,40.59
2023-04-26T10:25:35.720Z,43.17
2023-04-26T10:28:02.583Z,39.57
2023-04-26T10:30:29.532Z,41.37
2023-04-26T10:32:56.370Z,41.62
2023-04-26T10:35:32.447Z,40.92
2023-04-26T10:38:01.762Z,39.38
2023-04-26T10:40:37.279Z,39.92
2023-04-26T10:43:12.853Z,39.25
2023-04-26T10:45:41.415Z,39.08
2023-04-26T10:48:13.913Z,40.83
2023-04-26T10:50:58.878Z,41.15
2023-04-26T10:53:25.774Z,40.24
2023-04-26T10:55:52.484Z,39.67
2023-04-26T10:58:33.355Z,40.64
2023-04-26T11:01:09.856Z,39.72
2023-04-26T11:03:36.817Z,38.77
2023-04-26T11:06:10.367Z,39.56
2023-04-26T11:08:37.162Z,36.75
2023-04-26T11:11:03.711Z,38.35
2023-04-26T11:13:36.030Z,41.56
2023-04-26T11:16:05.792Z,38.12
2023-04-26T11:18:33.409Z,37.55
2023-04-26T11:21:01.113Z,38.98
2023-04-26T11:23:30.073Z,40.44
2023-04-26T11:26:00.608Z,37.42
2023-04-26T11:28:27.252Z,37.51
2023-04-26T11:30:53.893Z,38.26
2023-04-26T11:33:21.630Z,41.56
2023-04-26T11:35:55.784Z,35.96
2023-04-26T11:38:26.813Z,35.44
2023-04-26T11:40:56.396Z,36.89
2023-04-26T11:43:27.698Z,36.98
2023-04-26T11:45:59.183Z,37.41
2023-04-26T11:48:26.505Z,40.74
2023-04-26T11:50:53.706Z,39.98
2023-04-26T11:53:20.440Z,39.80
2023-04-26T11:55:47.154Z,41.41
2023-04-26T11:58:14.953Z,41.23
2023-04-26T12:00:59.311Z,36.91
2023-04-26T12:03:33.004Z,38.54
2023-04-26T12:05:59.921Z,40.10
2023-04-26T12:08:27.996Z,38.42
2023-04-26T12:10:54.635Z,35.88
2023-04-26T12:13:21.451Z,38.40
2023-04-26T12:15:48.104Z,38.87
2023-04-26T12:18:15.049Z,39.08
2023-04-26T12:20:43.329Z,36.67
2023-04-26T12:23:14.657Z,39.24
2023-04-26T12:25:52.461Z,38.62
2023-04-26T12:28:19.279Z,40.48
2023-04-26T12:30:46.014Z,38.50
2023-04-26T12:33:17.707Z,39.47
2023-04-26T12:35:45.985Z,37.52
2023-04-26T12:38:12.823Z,38.16
2023-04-26T12:40:39.750Z,36.81
2023-04-26T12:43:07.047Z,38.68
2023-04-26T12:45:33.714Z,38.90
2023-04-26T12:48:00.341Z,41.99
2023-04-26T12:50:27.150Z,39.43
2023-04-26T12:52:54.646Z,40.47
2023-04-26T12:55:23.623Z,40.78
2023-04-26T12:57:50.386Z,41.04
2023-04-26T13:00:17.511Z,37.79
2023-04-26T13:02:44.768Z,38.98
2023-04-26T13:05:11.607Z,40.30
2023-04-26T13:07:40.430Z,39.85
2023-04-26T13:10:07.760Z,38.79
2023-04-26T13:12:34.728Z,39.53
2023-04-26T13:15:01.364Z,39.13
2023-04-26T13:17:28.235Z,39.84
2023-04-26T13:19:54.956Z,37.18
2023-04-26T13:22:21.824Z,38.68
2023-04-26T13:24:48.810Z,40.76
2023-04-26T13:27:15.504Z,39.94
2023-04-26T13:29:42.098Z,36.81
2023-04-26T13:32:08.900Z,37.39
2023-04-26T13:34:36.132Z,38.49
2023-04-26T13:37:02.839Z,37.46
2023-04-26T13:39:29.751Z,38.89
2023-04-26T13:41:56.480Z,37.62
2023-04-26T13:44:23.131Z,37.45
2023-04-26T13:46:49.814Z,36.31
2023-04-26T13:49:16.428Z,37.49
2023-04-26T13:51:43.138Z,35.80
2023-04-26T13:54:09.888Z,37.90
2023-04-26T13:56:36.559Z,38.48
2023-04-26T13:59:03.150Z,37.25
2023-04-26T14:01:30.024Z,36.17
2023-04-26T14:03:57.225Z,37.67
2023-04-26T14:06:24.215Z,37.57
2023-04-26T14:08:50.861Z,38.29
2023-04-26T14:11:17.608Z,38.64
2023-04-26T14:13:44.324Z,39.91
2023-04-26T14:16:10.971Z,39.98
2023-04-26T14:18:37.725Z,38.54
2023-04-26T14:21:04.639Z,38.14
2023-04-26T14:23:31.303Z,38.60
2023-04-26T14:25:57.961Z,40.10
2023-04-26T14:28:24.629Z,38.40
2023-04-26T14:30:51.416Z,38.08
2023-04-26T14:33:18.170Z,39.17
2023-04-26T14:35:44.840Z,37.81
2023-04-26T14:38:11.477Z,39.18
2023-04-26T14:40:38.078Z,39.12
2023-04-26T14:43:04.811Z,40.07
2023-04-26T14:45:43.406Z,39.95
2023-04-26T14:48:11.337Z,38.48
2023-04-26T14:50:38.014Z,39.85
2023-04-26T14:53:04.823Z,39.52
2023-04-26T14:55:31.686Z,38.04
2023-04-26T14:57:58.386Z,37.58
2023-04-26T15:00:25.023Z,36.44
2023-04-26T15:02:51.891Z,37.03
2023-04-26T15:05:19.090Z,37.85
2023-04-26T15:07:45.874Z,37.29
2023-04-26T15:10:12.493Z,38.82
2023-04-26T15:12:39.097Z,40.71
2023-04-26T15:15:06.313Z,39.49
2023-04-26T15:17:33.628Z,40.83
2023-04-26T15:20:03.132Z,38.02
2023-04-26T15:22:29.788Z,38.16
2023-04-26T15:24:56.362Z,38.76
2023-04-26T15:27:23.039Z,39.85
2023-04-26T15:29:49.931Z,39.58
2023-04-26T15:32:16.632Z,39.69
2023-04-26T15:34:43.315Z,41.46
2023-04-26T15:37:10.004Z,42.17
2023-04-26T15:39:36.714Z,40.60
2023-04-26T15:42:04.640Z,40.89
2023-04-26T15:44:32.890Z,41.82
2023-04-26T15:46:59.968Z,40.64
2023-04-26T15:49:26.651Z,40.92
2023-04-26T15:51:53.245Z,42.42
2023-04-26T15:54:19.961Z,40.91
2023-04-26T15:56:46.567Z,40.46
2023-04-26T15:59:13.661Z,40.71
2023-04-26T16:01:40.525Z,39.43
2023-04-26T16:04:07.508Z,39.60
2023-04-26T16:06:34.297Z,39.26
2023-04-26T16:09:02.045Z,39.05
2023-04-26T16:11:28.862Z,37.97
2023-04-26T16:13:55.496Z,37.54
2023-04-26T16:16:22.195Z,38.04
2023-04-26T16:18:48.965Z,37.40
2023-04-26T16:21:15.639Z,36.32
2023-04-26T16:23:42.264Z,35.77
2023-04-26T16:26:09.007Z,36.60
2023-04-26T16:28:35.938Z,37.27
2023-04-26T16:31:02.810Z,37.38
2023-04-26T16:33:29.729Z,38.57
2023-04-26T16:35:56.608Z,37.68
2023-04-26T16:38:23.952Z,37.17
2023-04-26T16:40:58.482Z,36.59
2023-04-26T16:43:26.229Z,37.78
2023-04-26T16:46:04.294Z,37.53
2023-04-26T16:48:32.156Z,38.49
2023-04-26T16:51:00.154Z,39.35
2023-04-26T16:53:27.140Z,37.83
2023-04-26T16:55:53.856Z,38.17
2023-04-26T16:58:20.531Z,38.75
2023-04-26T17:00:47.376Z,39.18
2023-04-26T17:03:14.439Z,39.10
2023-04-26T17:05:45.786Z,39.27
2023-04-26T17:08:16.265Z,38.96
2023-04-26T17:10:44.492Z,40.08
2023-04-26T17:13:11.152Z,39.50
2023-04-26T17:15:37.772Z,40.04
2023-04-26T17:18:05.431Z,39.26
2023-04-26T17:20:33.175Z,40.06
2023-04-26T17:23:03.645Z,39.57
2023-04-26T17:25:30.951Z,39.84
2023-04-26T17:27:57.639Z,41.44
2023-04-26T17:30:24.443Z,39.72
2023-04-26T17:32:51.187Z,41.96
2023-04-26T17:35:17.923Z,39.58
2023-04-26T17:37:44.547Z,39.64
2023-04-26T17:40:11.705Z,41.39
2023-04-26T17:42:38.396Z,41.65
2023-04-26T17:45:05.613Z,40.82
2023-04-26T17:47:32.306Z,42.06
2023-04-26T17:49:59.206Z,41.53
2023-04-26T17:52:25.979Z,41.94
2023-04-26T17:54:52.605Z,42.50
2023-04-26T17:57:19.250Z,41.90
2023-04-26T17:59:46.068Z,42.45
2023-04-26T18:02:13.123Z,43.59
2023-04-26T18:04:40.271Z,42.13
2023-04-26T18:07:07.052Z,43.39
2023-04-26T18:09:33.812Z,42.78
2023-04-26T18:12:00.655Z,43.18
2023-04-26T18:14:27.264Z,43.41
2023-04-26T18:16:54.000Z,42.45
2023-04-26T18:19:20.603Z,43.15
2023-04-26T18:21:47.637Z,42.20
2023-04-26T18:24:14.246Z,42.24
2023-04-26T18:26:41.256Z,44.04
2023-04-26T18:29:07.883Z,42.38
2023-04-26T18:31:34.752Z,42.85
2023-04-26T18:34:01.404Z,43.86
2023-04-26T18:36:28.050Z,43.14
2023-04-26T18:38:54.657Z,42.52
2023-04-26T18:41:21.299Z,43.58
2023-04-26T18:43:47.940Z,42.66
2023-04-26T18:46:14.592Z,43.02
2023-04-26T18:48:41.260Z,41.93
2023-04-26T18:51:07.867Z,43.30
2023-04-26T18:53:34.474Z,44.17
2023-04-26T18:56:01.159Z,43.37
2023-04-26T18:58:27.871Z,42.18
2023-04-26T19:00:54.745Z,44.16
2023-04-26T19:03:21.717Z,43.51
2023-04-26T19:05:48.701Z,43.62
2023-04-26T19:08:15.374Z,45.08
2023-04-26T19:10:42.003Z,44.39
2023-04-26T19:13:08.682Z,43.15
2023-04-26T19:15:35.350Z,44.37
2023-04-26T19:18:02.236Z,43.90
2023-04-26T19:20:28.970Z,44.92
2023-04-26T19:22:55.635Z,46.07
2023-04-26T19:25:24.706Z,43.95
2023-04-26T19:27:51.395Z,44.25
2023-04-26T19:30:18.271Z,44.85
2023-04-26T19:32:44.931Z,43.96
2023-04-26T19:35:11.607Z,45.41
2023-04-26T19:37:38.364Z,45.83
2023-04-26T19:40:05.588Z,45.54
2023-04-26T19:42:32.208Z,47.12
2023-04-26T19:44:58.953Z,45.84
2023-04-26T19:47:25.642Z,47.60
2023-04-26T19:49:52.343Z,47.52
2023-04-26T19:52:18.961Z,47.43
2023-04-26T19:54:45.534Z,46.87
2023-04-26T19:57:12.239Z,50.11
2023-04-26T19:59:38.884Z,48.68
2023-04-26T20:02:05.813Z,47.12
2023-04-26T20:04:32.578Z,49.11
2023-04-26T20:06:59.274Z,48.01
2023-04-26T20:09:26.028Z,49.00
2023-04-26T20:11:52.675Z,49.41
2023-04-26T20:14:19.292Z,48.81
2023-04-26T20:16:46.033Z,49.36
2023-04-26T20:19:13.165Z,49.08
2023-04-26T20:21:39.793Z,49.86
2023-04-26T20:24:06.871Z,49.91
2023-04-26T20:26:33.604Z,49.70
2023-04-26T20:29:00.282Z,50.33
2023-04-26T20:31:26.954Z,50.91
2023-04-26T20:33:53.740Z,50.89
2023-04-26T20:36:22.924Z,51.61
2023-04-26T20:38:49.583Z,50.43
2023-04-26T20:41:16.215Z,50.58
2023-04-26T20:43:42.834Z,51.33
2023-04-26T20:46:09.552Z,50.25
2023-04-26T20:48:36.286Z,50.73
2023-04-26T20:51:02.982Z,50.31
2023-04-26T20:53:29.742Z,50.91
2023-04-26T20:55:56.573Z,51.75
2023-04-26T20:58:23.189Z,51.98
2023-04-26T21:00:50.493Z,52.75
2023-04-26T21:03:17.430Z,52.58
2023-04-26T21:05:44.172Z,51.88
2023-04-26T21:08:10.868Z,52.51
2023-04-26T21:10:37.526Z,53.25
2023-04-26T21:13:04.253Z,52.58
2023-04-26T21:15:30.906Z,52.94
2023-04-26T21:17:57.618Z,54.07
2023-04-26T21:20:24.304Z,52.89
2023-04-26T21:22:50.901Z,52.85
2023-04-26T21:25:17.552Z,53.64
2023-04-26T21:27:44.182Z,54.03
2023-04-26T21:30:11.559Z,53.96
2023-04-26T21:32:38.385Z,54.63
2023-04-26T21:35:05.367Z,54.43
2023-04-26T21:37:31.907Z,55.18
2023-04-26T21:39:58.776Z,56.16
2023-04-26T21:42:25.434Z,56.23
2023-04-26T21:44:52.390Z,56.38
2023-04-26T21:47:19.341Z,56.37
2023-04-26T21:49:46.031Z,57.57
2023-04-26T21:52:12.667Z,57.68
2023-04-26T21:54:39.482Z,58.49
2023-04-26T21:57:06.116Z,58.51
2023-04-26T21:59:33.485Z,58.82
2023-04-26T22:02:00.276Z,58.86
2023-04-26T22:04:27.172Z,59.17
2023-04-26T22:06:53.802Z,59.88
2023-04-26T22:09:20.877Z,59.94
2023-04-26T22:11:47.638Z,57.76
2023-04-26T22:14:14.277Z,58.64
2023-04-26T22:16:40.925Z,59.58
2023-04-26T22:19:10.551Z,59.91
2023-04-26T22:21:37.577Z,60.01
2023-04-26T22:24:04.354Z,60.27
2023-04-26T22:26:30.987Z,60.34
2023-04-26T22:28:57.775Z,60.36
2023-04-26T22:31:25.288Z,60.73
2023-04-26T22:33:52.066Z,61.06
2023-04-26T22:36:18.760Z,60.18
2023-04-26T22:38:45.418Z,60.20
2023-04-26T22:41:12.003Z,59.98
2023-04-26T22:43:38.637Z,59.64
2023-04-26T22:46:05.365Z,59.78
2023-04-26T22:48:32.039Z,60.95
2023-04-26T22:50:58.633Z,60.20
2023-04-26T22:53:25.309Z,61.21
2023-04-26T22:55:51.956Z,60.86
2023-04-26T22:58:18.659Z,59.64
2023-04-26T23:00:45.248Z,60.35
2023-04-26T23:03:11.969Z,60.97
2023-04-26T23:05:38.792Z,62.32
2023-04-26T23:08:05.649Z,63.05
2023-04-26T23:10:32.284Z,62.41
2023-04-26T23:12:58.885Z,61.15
2023-04-26T23:15:25.602Z,62.11
2023-04-26T23:17:52.236Z,62.83
2023-04-26T23:20:19.088Z,63.29
2023-04-26T23:22:45.724Z,63.16
2023-04-26T23:25:12.409Z,62.95
2023-04-26T23:27:39.120Z,62.30
2023-04-26T23:30:06.811Z,62.73
2023-04-26T23:32:33.581Z,62.81
2023-04-26T23:35:00.276Z,62.95
2023-04-26T23:37:26.915Z,63.90
2023-04-26T23:39:53.640Z,64.87
2023-04-26T23:42:20.298Z,65.08
2023-04-26T23:44:46.942Z,65.46
2023-04-26T23:47:13.601Z,64.93
2023-04-26T23:49:40.189Z,66.24
2023-04-26T23:52:06.869Z,66.28
2023-04-26T23:54:33.612Z,66.33
2023-04-26T23:57:00.224Z,67.75
2023-04-26T23:59:26.839Z,67.30
